createdAt,value
2017-05-06T00:00:57.154Z,7.92
2017-05-06T00:01:58.578Z,7.79
2017-05-06T00:02:59.998Z,7.69
2017-05-06T00:04:01.419Z,7.71
2017-05-06T00:05:02.836Z,7.62
2017-05-06T00:06:04.256Z,7.78
2017-05-06T00:07:05.687Z,7.78
2017-05-06T00:08:07.102Z,7.85
2017-05-06T00:09:08.523Z,7.96
2017-05-06T00:10:09.948Z,8.10
2017-05-06T00:11:11.369Z,8.00
2017-05-06T00:12:12.787Z,8.04
2017-05-06T00:13:14.202Z,8.14
2017-05-06T00:14:15.629Z,8.11
2017-05-06T00:15:17.050Z,8.21
2017-05-06T00:16:18.469Z,8.20
2017-05-06T00:17:19.894Z,8.32
2017-05-06T00:18:21.310Z,8.45
2017-05-06T00:19:22.749Z,8.51
2017-05-06T00:20:24.163Z,8.48
2017-05-06T00:21:25.606Z,8.65
2017-05-06T00:22:27.013Z,8.57
2017-05-06T00:23:28.435Z,8.53
2017-05-06T00:24:29.857Z,8.55
2017-05-06T00:25:31.277Z,8.66
2017-05-06T00:26:32.701Z,8.72
2017-05-06T00:27:34.174Z,8.79
2017-05-06T00:28:35.598Z,8.76
2017-05-06T00:29:37.018Z,8.84
2017-05-06T00:30:38.462Z,8.79
2017-05-06T00:31:39.854Z,8.84
2017-05-06T00:32:41.276Z,8.87
2017-05-06T00:33:42.697Z,8.93
2017-05-06T00:34:44.119Z,9.04
2017-05-06T00:35:45.533Z,9.02
2017-05-06T00:36:46.955Z,9.16
2017-05-06T00:37:48.369Z,9.18
2017-05-06T00:38:49.786Z,9.12
2017-05-06T00:39:51.209Z,9.18
2017-05-06T00:40:52.648Z,9.28
2017-05-06T00:41:54.070Z,9.46
2017-05-06T00:42:55.486Z,9.31
2017-05-06T00:43:56.911Z,9.39
2017-05-06T00:44:58.322Z,9.35
2017-05-06T00:45:59.738Z,9.31
2017-05-06T00:47:01.158Z,9.21
2017-05-06T00:48:02.578Z,9.31
2017-05-06T00:49:04.003Z,9.23
2017-05-06T00:50:05.419Z,9.18
2017-05-06T00:51:06.840Z,9.38
2017-05-06T00:52:08.283Z,9.30
2017-05-06T00:53:09.678Z,9.30
2017-05-06T00:54:11.102Z,9.35
2017-05-06T00:55:12.531Z,9.39
2017-05-06T00:56:13.946Z,9.23
2017-05-06T00:57:15.374Z,9.27
2017-05-06T00:58:16.789Z,9.23
2017-05-06T00:59:18.206Z,8.96
2017-05-06T01:00:19.636Z,8.94
2017-05-06T01:01:21.052Z,8.97
2017-05-06T01:02:22.474Z,9.01
2017-05-06T01:03:23.897Z,9.16
2017-05-06T01:04:25.317Z,9.04
2017-05-06T01:05:26.742Z,8.94
2017-05-06T01:06:28.156Z,9.04
2017-05-06T01:07:29.579Z,9.05
2017-05-06T01:08:30.997Z,9.05
2017-05-06T01:09:32.417Z,9.05
2017-05-06T01:10:33.840Z,9.04
2017-05-06T01:11:35.255Z,9.09
2017-05-06T01:12:36.675Z,9.05
2017-05-06T01:13:38.107Z,8.93
2017-05-06T01:14:39.534Z,9.09
2017-05-06T01:15:40.948Z,8.94
2017-05-06T01:16:42.372Z,8.94
2017-05-06T01:17:43.800Z,8.93
2017-05-06T01:18:45.217Z,8.91
2017-05-06T01:19:46.643Z,9.09
2017-05-06T01:20:48.061Z,8.91
2017-05-06T01:21:49.478Z,8.84
2017-05-06T01:22:50.901Z,8.90
2017-05-06T01:23:52.323Z,8.81
2017-05-06T01:24:53.742Z,8.91
2017-05-06T01:25:55.163Z,8.91
2017-05-06T01:26:56.583Z,9.02
2017-05-06T01:27:58.008Z,9.01
2017-05-06T01:28:59.427Z,8.96
2017-05-06T01:30:00.849Z,8.88
2017-05-06T01:31:02.269Z,8.87
2017-05-06T01:32:03.687Z,8.91
2017-05-06T01:33:05.111Z,8.81
2017-05-06T01:34:06.527Z,8.88
2017-05-06T01:35:07.946Z,8.86
2017-05-06T01:36:09.381Z,8.83
2017-05-06T01:37:10.798Z,8.81
2017-05-06T01:38:12.223Z,8.71
2017-05-06T01:39:13.645Z,8.63
2017-05-06T01:40:15.067Z,8.54
2017-05-06T01:41:16.498Z,8.55
2017-05-06T01:42:17.918Z,8.72
2017-05-06T01:43:19.346Z,8.71
2017-05-06T01:44:20.769Z,8.71
2017-05-06T01:45:22.187Z,8.62
2017-05-06T01:46:23.618Z,8.63
2017-05-06T01:47:25.040Z,8.57
2017-05-06T01:48:26.457Z,8.62
2017-05-06T01:49:27.883Z,8.71
2017-05-06T01:50:29.297Z,8.69
2017-05-06T01:51:30.720Z,8.66
2017-05-06T01:52:32.152Z,8.71
2017-05-06T01:53:33.566Z,8.71
2017-05-06T01:54:34.982Z,8.66
2017-05-06T01:55:36.406Z,8.66
2017-05-06T01:56:37.828Z,8.71
2017-05-06T01:57:39.249Z,8.62
2017-05-06T01:58:40.671Z,8.50
2017-05-06T01:59:42.089Z,8.51
2017-05-06T02:00:43.502Z,8.42
2017-05-06T02:01:44.927Z,8.37
2017-05-06T02:02:46.348Z,8.37
2017-05-06T02:03:47.780Z,8.35
2017-05-06T02:04:49.196Z,8.37
2017-05-06T02:05:50.619Z,8.32
2017-05-06T02:06:52.036Z,8.47
2017-05-06T02:07:53.451Z,8.54
2017-05-06T02:08:54.876Z,8.66
2017-05-06T02:09:56.301Z,8.40
2017-05-06T02:10:57.725Z,8.39
2017-05-06T02:11:59.145Z,8.36
2017-05-06T02:13:00.570Z,8.22
2017-05-06T02:14:01.988Z,8.25
2017-05-06T02:15:03.407Z,8.22
2017-05-06T02:16:04.825Z,8.26
2017-05-06T02:17:06.247Z,8.11
2017-05-06T02:18:07.671Z,8.11
2017-05-06T02:19:09.096Z,8.04
2017-05-06T02:20:10.529Z,8.02
2017-05-06T02:21:11.951Z,8.00
2017-05-06T02:22:13.373Z,8.00
2017-05-06T02:23:14.787Z,8.08
2017-05-06T02:24:16.210Z,8.00
2017-05-06T02:25:17.627Z,8.00
2017-05-06T02:26:19.043Z,8.15
2017-05-06T02:27:20.465Z,8.03
2017-05-06T02:28:21.885Z,8.08
2017-05-06T02:29:23.303Z,8.11
2017-05-06T02:30:24.725Z,8.18
2017-05-06T02:31:26.149Z,8.14
2017-05-06T02:32:27.563Z,8.25
2017-05-06T02:33:28.986Z,8.02
2017-05-06T02:34:30.412Z,8.17
2017-05-06T02:35:31.835Z,8.08
2017-05-06T02:36:33.272Z,8.14
2017-05-06T02:37:34.690Z,8.28
2017-05-06T02:38:36.103Z,8.15
2017-05-06T02:39:37.528Z,8.20
2017-05-06T02:40:38.949Z,8.26
2017-05-06T02:41:40.370Z,8.26
2017-05-06T02:42:41.842Z,8.22
2017-05-06T02:43:43.294Z,8.30
2017-05-06T02:44:44.714Z,8.14
2017-05-06T02:45:46.135Z,8.00
2017-05-06T02:46:47.563Z,8.02
2017-05-06T02:47:48.991Z,7.96
2017-05-06T02:48:50.413Z,8.03
2017-05-06T02:49:51.827Z,7.99
2017-05-06T02:50:53.252Z,8.04
2017-05-06T02:51:54.687Z,8.02
2017-05-06T02:52:56.114Z,8.15
2017-05-06T02:53:58.084Z,8.11
2017-05-06T02:54:59.508Z,8.20
2017-05-06T02:56:00.928Z,8.20
2017-05-06T02:57:02.346Z,8.03
2017-05-06T02:58:03.769Z,8.17
2017-05-06T02:59:05.193Z,8.12
2017-05-06T03:00:06.615Z,8.21
2017-05-06T03:01:08.030Z,8.15
2017-05-06T03:02:09.449Z,8.33
2017-05-06T03:03:10.865Z,8.36
2017-05-06T03:04:12.288Z,8.33
2017-05-06T03:05:13.702Z,8.47
2017-05-06T03:06:15.133Z,8.50
2017-05-06T03:07:16.552Z,8.42
2017-05-06T03:08:18.018Z,8.45
2017-05-06T03:09:19.452Z,8.55
2017-05-06T03:10:20.871Z,8.48
2017-05-06T03:11:22.295Z,8.57
2017-05-06T03:12:23.724Z,8.62
2017-05-06T03:13:25.147Z,8.71
2017-05-06T03:14:26.564Z,8.66
2017-05-06T03:15:27.986Z,8.73
2017-05-06T03:16:29.419Z,8.72
2017-05-06T03:17:30.843Z,8.79
2017-05-06T03:18:32.257Z,8.83
2017-05-06T03:19:33.690Z,8.76
2017-05-06T03:20:35.109Z,8.83
2017-05-06T03:21:36.526Z,8.78
2017-05-06T03:22:37.949Z,8.65
2017-05-06T03:23:39.384Z,8.66
2017-05-06T03:24:40.810Z,8.73
2017-05-06T03:25:42.254Z,8.84
2017-05-06T03:26:43.660Z,8.81
2017-05-06T03:27:45.074Z,8.86
2017-05-06T03:28:46.878Z,8.83
2017-05-06T03:29:48.294Z,8.90
2017-05-06T03:30:49.718Z,8.84
2017-05-06T03:31:51.142Z,8.91
2017-05-06T03:32:52.569Z,8.86
2017-05-06T03:33:54.204Z,8.84
2017-05-06T03:34:55.631Z,8.69
2017-05-06T03:35:57.047Z,8.81
2017-05-06T03:36:58.463Z,8.84
2017-05-06T03:37:59.891Z,8.66
2017-05-06T03:39:01.308Z,8.63
2017-05-06T03:40:02.729Z,8.71
2017-05-06T03:41:04.237Z,8.62
2017-05-06T03:42:05.653Z,8.58
2017-05-06T03:43:07.080Z,8.50
2017-05-06T03:44:08.497Z,8.60
2017-05-06T03:45:09.917Z,8.63
2017-05-06T03:46:11.343Z,8.60
2017-05-06T03:47:12.762Z,8.69
2017-05-06T03:48:14.189Z,8.76
2017-05-06T03:49:15.613Z,8.78
2017-05-06T03:50:17.029Z,8.76
2017-05-06T03:51:18.451Z,8.79
2017-05-06T03:52:19.877Z,8.81
2017-05-06T03:53:21.296Z,8.76
2017-05-06T03:54:22.720Z,8.83
2017-05-06T03:55:24.140Z,8.72
2017-05-06T03:56:25.557Z,8.73
2017-05-06T03:57:26.976Z,8.83
2017-05-06T03:58:28.399Z,8.81
2017-05-06T03:59:29.816Z,8.75
2017-05-06T04:00:31.243Z,8.71
2017-05-06T04:01:32.672Z,8.66
2017-05-06T04:02:34.096Z,8.65
2017-05-06T04:03:35.511Z,8.73
2017-05-06T04:04:36.933Z,8.69
2017-05-06T04:05:38.350Z,8.73
2017-05-06T04:06:39.770Z,8.71
2017-05-06T04:07:41.190Z,8.69
2017-05-06T04:08:42.607Z,8.68
2017-05-06T04:09:44.034Z,8.68
2017-05-06T04:10:45.459Z,8.69
2017-05-06T04:11:46.879Z,8.63
2017-05-06T04:12:48.297Z,8.79
2017-05-06T04:13:49.721Z,8.68
2017-05-06T04:14:51.138Z,8.68
2017-05-06T04:15:52.564Z,8.55
2017-05-06T04:16:53.984Z,8.72
2017-05-06T04:17:55.418Z,8.69
2017-05-06T04:18:56.839Z,8.72
2017-05-06T04:19:58.260Z,8.68
2017-05-06T04:20:59.681Z,8.50
2017-05-06T04:22:01.113Z,8.60
2017-05-06T04:23:02.533Z,8.51
2017-05-06T04:24:03.961Z,8.54
2017-05-06T04:25:05.382Z,8.50
2017-05-06T04:26:06.801Z,8.53
2017-05-06T04:27:08.221Z,8.50
2017-05-06T04:28:09.649Z,8.51
2017-05-06T04:29:11.065Z,8.50
2017-05-06T04:30:12.496Z,8.50
2017-05-06T04:31:13.936Z,8.63
2017-05-06T04:32:15.452Z,8.69
2017-05-06T04:33:16.878Z,8.68
2017-05-06T04:34:18.299Z,8.50
2017-05-06T04:35:19.721Z,8.53
2017-05-06T04:36:21.140Z,8.50
2017-05-06T04:37:22.564Z,8.53
2017-05-06T04:38:24.074Z,8.36
2017-05-06T04:39:25.509Z,8.33
2017-05-06T04:40:26.933Z,8.32
2017-05-06T04:41:28.359Z,8.30
2017-05-06T04:42:29.789Z,8.28
2017-05-06T04:43:31.213Z,8.40
2017-05-06T04:44:32.636Z,8.39
2017-05-06T04:45:34.063Z,8.30
2017-05-06T04:46:35.489Z,8.29
2017-05-06T04:47:36.909Z,8.42
2017-05-06T04:48:38.329Z,8.45
2017-05-06T04:49:39.752Z,8.35
2017-05-06T04:50:41.185Z,8.37
2017-05-06T04:51:42.613Z,8.48
2017-05-06T04:52:44.042Z,8.54
2017-05-06T04:53:45.466Z,8.48
2017-05-06T04:54:46.895Z,8.48
2017-05-06T04:55:48.315Z,8.51
2017-05-06T04:56:49.736Z,8.48
2017-05-06T04:57:51.160Z,8.44
2017-05-06T04:58:52.582Z,8.33
2017-05-06T04:59:54.011Z,8.47
2017-05-06T05:00:55.433Z,8.51
2017-05-06T05:01:56.858Z,8.50
2017-05-06T05:02:58.287Z,8.51
2017-05-06T05:03:59.711Z,8.47
2017-05-06T05:05:01.140Z,8.35
2017-05-06T05:06:02.560Z,8.14
2017-05-06T05:07:03.983Z,8.28
2017-05-06T05:08:05.408Z,8.32
2017-05-06T05:09:06.832Z,8.37
2017-05-06T05:10:08.260Z,8.42
2017-05-06T05:11:09.690Z,8.28
2017-05-06T05:12:11.120Z,8.40
2017-05-06T05:13:12.543Z,8.22
2017-05-06T05:14:13.961Z,8.33
2017-05-06T05:15:15.382Z,8.53
2017-05-06T05:16:16.801Z,8.69
2017-05-06T05:17:18.232Z,8.57
2017-05-06T05:18:19.654Z,8.73
2017-05-06T05:19:21.079Z,8.68
2017-05-06T05:20:22.504Z,8.76
2017-05-06T05:21:23.928Z,8.65
2017-05-06T05:22:25.358Z,8.71
2017-05-06T05:23:26.781Z,8.71
2017-05-06T05:24:28.225Z,8.78
2017-05-06T05:25:29.649Z,8.94
2017-05-06T05:26:31.073Z,8.83
2017-05-06T05:27:32.503Z,8.79
2017-05-06T05:28:33.933Z,8.93
2017-05-06T05:29:35.353Z,8.93
2017-05-06T05:30:36.776Z,8.99
2017-05-06T05:31:38.203Z,8.91
2017-05-06T05:32:39.669Z,8.75
2017-05-06T05:33:41.103Z,8.76
2017-05-06T05:34:42.519Z,8.62
2017-05-06T05:35:43.950Z,8.65
2017-05-06T05:36:45.381Z,8.68
2017-05-06T05:37:46.806Z,8.71
2017-05-06T05:38:48.260Z,8.69
2017-05-06T05:39:49.685Z,8.71
2017-05-06T05:40:51.112Z,8.76
2017-05-06T05:41:52.533Z,8.86
2017-05-06T05:42:53.961Z,8.55
2017-05-06T05:43:55.382Z,8.63
2017-05-06T05:44:56.807Z,8.53
2017-05-06T05:45:58.229Z,8.54
2017-05-06T05:46:59.666Z,8.66
2017-05-06T05:48:01.093Z,8.65
2017-05-06T05:49:02.511Z,8.75
2017-05-06T05:50:03.954Z,8.83
2017-05-06T05:51:05.376Z,8.88
2017-05-06T05:52:06.800Z,8.81
2017-05-06T05:53:08.221Z,9.01
2017-05-06T05:54:09.643Z,9.01
2017-05-06T05:55:11.070Z,9.13
2017-05-06T05:56:12.495Z,9.09
2017-05-06T05:57:13.924Z,9.15
2017-05-06T05:58:15.346Z,9.25
2017-05-06T05:59:16.770Z,9.30
2017-05-06T06:00:18.198Z,9.38
2017-05-06T06:01:20.000Z,9.42
2017-05-06T06:02:21.470Z,9.57
2017-05-06T06:03:22.886Z,9.40
2017-05-06T06:04:24.311Z,9.52
2017-05-06T06:05:25.728Z,9.56
2017-05-06T06:06:27.163Z,9.58
2017-05-06T06:07:28.590Z,9.49
2017-05-06T06:08:30.013Z,9.52
2017-05-06T06:09:31.433Z,9.63
2017-05-06T06:10:32.865Z,9.70
2017-05-06T06:11:34.293Z,9.75
2017-05-06T06:12:35.718Z,9.56
2017-05-06T06:13:37.140Z,9.81
2017-05-06T06:14:38.568Z,9.96
2017-05-06T06:15:40.028Z,9.82
2017-05-06T06:16:41.421Z,9.83
2017-05-06T06:17:42.850Z,9.83
2017-05-06T06:18:44.282Z,9.79
2017-05-06T06:19:45.714Z,9.82
2017-05-06T06:20:47.131Z,9.82
2017-05-06T06:21:48.553Z,9.96
2017-05-06T06:22:49.983Z,9.96
2017-05-06T06:23:51.409Z,10.03
2017-05-06T06:24:52.830Z,9.96
2017-05-06T06:25:54.253Z,9.96
2017-05-06T06:26:55.681Z,10.04
2017-05-06T06:27:57.119Z,10.22
2017-05-06T06:28:58.544Z,10.09
2017-05-06T06:29:59.973Z,10.19
2017-05-06T06:31:01.403Z,10.12
2017-05-06T06:32:02.825Z,10.17
2017-05-06T06:33:04.251Z,10.24
2017-05-06T06:34:05.670Z,10.33
2017-05-06T06:35:07.096Z,10.34
2017-05-06T06:36:08.523Z,10.44
2017-05-06T06:37:09.942Z,10.39
2017-05-06T06:38:11.375Z,10.55
2017-05-06T06:39:12.805Z,10.42
2017-05-06T06:40:14.224Z,10.25
2017-05-06T06:41:15.656Z,10.34
2017-05-06T06:42:17.078Z,10.12
2017-05-06T06:43:18.513Z,10.04
2017-05-06T06:44:19.941Z,10.00
2017-05-06T06:45:21.369Z,10.12
2017-05-06T06:46:22.800Z,10.17
2017-05-06T06:47:24.224Z,10.21
2017-05-06T06:48:25.650Z,10.25
2017-05-06T06:49:27.078Z,10.26
2017-05-06T06:50:28.504Z,10.28
2017-05-06T06:51:29.931Z,10.47
2017-05-06T06:52:31.354Z,10.52
2017-05-06T06:53:32.777Z,10.68
2017-05-06T06:54:34.214Z,10.52
2017-05-06T06:55:35.629Z,10.62
2017-05-06T06:56:37.065Z,10.62
2017-05-06T06:57:38.482Z,10.53
2017-05-06T06:58:40.007Z,10.52
2017-05-06T06:59:41.469Z,10.56
2017-05-06T07:00:42.901Z,10.56
2017-05-06T07:01:44.328Z,10.56
2017-05-06T07:02:45.797Z,10.59
2017-05-06T07:03:47.228Z,10.70
2017-05-06T07:04:48.666Z,10.74
2017-05-06T07:05:50.124Z,10.60
2017-05-06T07:06:51.557Z,10.66
2017-05-06T07:07:52.981Z,10.78
2017-05-06T07:08:54.414Z,10.96
2017-05-06T07:09:55.848Z,11.14
2017-05-06T07:10:57.293Z,11.14
2017-05-06T07:11:58.709Z,11.21
2017-05-06T07:13:00.135Z,11.09
2017-05-06T07:14:01.690Z,10.96
2017-05-06T07:15:03.119Z,10.91
2017-05-06T07:16:04.554Z,11.13
2017-05-06T07:17:05.990Z,11.13
2017-05-06T07:18:07.436Z,11.25
2017-05-06T07:19:08.862Z,11.31
2017-05-06T07:20:10.288Z,11.31
2017-05-06T07:21:11.717Z,11.47
2017-05-06T07:22:13.143Z,11.38
2017-05-06T07:23:14.569Z,11.28
2017-05-06T07:24:16.054Z,11.24
2017-05-06T07:25:17.490Z,11.14
2017-05-06T07:26:18.918Z,11.07
2017-05-06T07:27:20.344Z,11.09
2017-05-06T07:28:21.765Z,11.11
2017-05-06T07:29:23.222Z,11.28
2017-05-06T07:30:24.659Z,11.34
2017-05-06T07:31:26.088Z,11.21
2017-05-06T07:32:27.514Z,11.28
2017-05-06T07:33:28.944Z,11.29
2017-05-06T07:34:30.373Z,11.49
2017-05-06T07:35:31.803Z,11.72
2017-05-06T07:36:33.215Z,11.54
2017-05-06T07:37:34.668Z,11.50
2017-05-06T07:38:36.079Z,11.65
2017-05-06T07:39:37.510Z,11.75
2017-05-06T07:40:38.930Z,11.59
2017-05-06T07:41:40.354Z,11.62
2017-05-06T07:42:41.779Z,11.74
2017-05-06T07:43:43.204Z,11.83
2017-05-06T07:44:44.643Z,11.90
2017-05-06T07:45:46.073Z,11.96
2017-05-06T07:46:47.510Z,12.06
2017-05-06T07:47:48.944Z,12.09
2017-05-06T07:48:50.375Z,12.11
2017-05-06T07:49:51.795Z,12.23
2017-05-06T07:50:53.251Z,12.34
2017-05-06T07:51:54.679Z,12.42
2017-05-06T07:52:56.103Z,12.46
2017-05-06T07:53:57.534Z,12.56
2017-05-06T07:54:58.965Z,12.62
2017-05-06T07:56:01.033Z,12.78
2017-05-06T07:57:02.470Z,12.79
2017-05-06T07:58:03.893Z,12.79
2017-05-06T07:59:05.316Z,12.82
2017-05-06T08:00:06.754Z,12.93
2017-05-06T08:01:08.186Z,12.99
2017-05-06T08:02:09.618Z,13.03
2017-05-06T08:03:11.043Z,13.02
2017-05-06T08:04:12.473Z,13.07
2017-05-06T08:05:13.917Z,12.97
2017-05-06T08:06:15.343Z,13.00
2017-05-06T08:07:16.772Z,13.17
2017-05-06T08:08:18.200Z,13.27
2017-05-06T08:09:19.639Z,13.41
2017-05-06T08:10:21.067Z,13.46
2017-05-06T08:11:22.492Z,13.44
2017-05-06T08:12:23.922Z,13.58
2017-05-06T08:13:25.354Z,13.73
2017-05-06T08:14:26.785Z,13.89
2017-05-06T08:15:28.211Z,13.88
2017-05-06T08:16:29.638Z,13.87
2017-05-06T08:17:31.074Z,14.02
2017-05-06T08:18:32.512Z,13.91
2017-05-06T08:19:33.939Z,13.80
2017-05-06T08:20:35.366Z,13.71
2017-05-06T08:21:36.793Z,13.79
2017-05-06T08:22:38.226Z,13.91
2017-05-06T08:23:39.659Z,13.99
2017-05-06T08:24:41.094Z,14.12
2017-05-06T08:25:42.523Z,13.99
2017-05-06T08:26:43.956Z,13.89
2017-05-06T08:27:45.384Z,13.94
2017-05-06T08:28:46.845Z,14.10
2017-05-06T08:29:48.244Z,13.95
2017-05-06T08:30:49.671Z,14.02
2017-05-06T08:31:51.100Z,13.94
2017-05-06T08:32:52.532Z,14.06
2017-05-06T08:33:53.971Z,14.17
2017-05-06T08:34:55.396Z,14.17
2017-05-06T08:35:56.824Z,14.10
2017-05-06T08:36:58.259Z,14.17
2017-05-06T08:37:59.688Z,14.44
2017-05-06T08:39:01.118Z,14.68
2017-05-06T08:40:02.548Z,14.60
2017-05-06T08:41:03.970Z,14.67
2017-05-06T08:42:05.403Z,14.86
2017-05-06T08:43:06.843Z,15.03
2017-05-06T08:44:08.273Z,14.84
2017-05-06T08:45:09.711Z,14.74
2017-05-06T08:46:11.137Z,14.65
2017-05-06T08:47:12.560Z,14.68
2017-05-06T08:48:13.992Z,14.72
2017-05-06T08:49:15.433Z,14.74
2017-05-06T08:50:16.866Z,14.81
2017-05-06T08:51:18.296Z,15.02
2017-05-06T08:52:19.727Z,15.06
2017-05-06T08:53:21.170Z,15.19
2017-05-06T08:54:22.606Z,15.39
2017-05-06T08:55:24.038Z,15.39
2017-05-06T08:56:25.465Z,15.38
2017-05-06T08:57:26.902Z,15.35
2017-05-06T08:58:28.333Z,15.42
2017-05-06T08:59:29.767Z,15.70
2017-05-06T09:00:31.199Z,15.49
2017-05-06T09:01:32.637Z,15.61
2017-05-06T09:02:34.071Z,15.74
2017-05-06T09:03:35.500Z,15.74
2017-05-06T09:04:36.937Z,15.54
2017-05-06T09:05:38.366Z,15.54
2017-05-06T09:06:39.801Z,15.54
2017-05-06T09:07:41.259Z,15.70
2017-05-06T09:08:42.700Z,15.94
2017-05-06T09:09:44.134Z,16.00
2017-05-06T09:10:45.564Z,15.99
2017-05-06T09:11:46.996Z,15.96
2017-05-06T09:12:48.427Z,15.94
2017-05-06T09:13:49.862Z,15.79
2017-05-06T09:14:51.296Z,16.03
2017-05-06T09:15:52.729Z,16.01
2017-05-06T09:16:54.158Z,16.33
2017-05-06T09:17:55.596Z,16.55
2017-05-06T09:18:57.028Z,16.35
2017-05-06T09:19:58.449Z,16.58
2017-05-06T09:20:59.894Z,16.58
2017-05-06T09:22:01.325Z,16.65
2017-05-06T09:23:02.761Z,16.58
2017-05-06T09:24:04.207Z,16.56
2017-05-06T09:25:05.649Z,16.52
2017-05-06T09:26:07.081Z,16.55
2017-05-06T09:27:08.509Z,16.52
2017-05-06T09:28:09.944Z,16.55
2017-05-06T09:29:11.391Z,16.58
2017-05-06T09:30:12.821Z,16.88
2017-05-06T09:31:14.252Z,16.93
2017-05-06T09:32:15.703Z,17.06
2017-05-06T09:33:17.135Z,16.98
2017-05-06T09:34:18.576Z,16.93
2017-05-06T09:35:20.011Z,16.85
2017-05-06T09:36:21.475Z,16.90
2017-05-06T09:37:22.906Z,17.00
2017-05-06T09:38:24.338Z,17.28
2017-05-06T09:39:25.775Z,17.36
2017-05-06T09:40:27.208Z,17.33
2017-05-06T09:41:28.635Z,17.20
2017-05-06T09:42:30.119Z,17.03
2017-05-06T09:43:31.561Z,17.03
2017-05-06T09:44:32.996Z,16.96
2017-05-06T09:45:34.431Z,17.03
2017-05-06T09:46:35.869Z,17.04
2017-05-06T09:47:37.305Z,17.08
2017-05-06T09:48:38.737Z,17.25
2017-05-06T09:49:40.173Z,17.32
2017-05-06T09:50:41.662Z,17.18
2017-05-06T09:51:43.094Z,17.11
2017-05-06T09:52:44.545Z,17.20
2017-05-06T09:53:45.973Z,17.06
2017-05-06T09:54:47.420Z,16.80
2017-05-06T09:55:48.844Z,16.63
2017-05-06T09:56:50.290Z,16.99
2017-05-06T09:57:51.765Z,17.23
2017-05-06T09:58:53.195Z,17.40
2017-05-06T09:59:54.633Z,17.48
2017-05-06T10:00:56.069Z,17.23
2017-05-06T10:01:57.535Z,17.36
2017-05-06T10:02:58.974Z,17.47
2017-05-06T10:04:00.410Z,17.50
2017-05-06T10:05:01.838Z,17.73
2017-05-06T10:06:03.277Z,17.55
2017-05-06T10:07:04.719Z,17.73
2017-05-06T10:08:06.150Z,17.88
2017-05-06T10:09:07.586Z,17.78
2017-05-06T10:10:09.022Z,17.79
2017-05-06T10:11:10.456Z,17.92
2017-05-06T10:12:11.891Z,17.91
2017-05-06T10:13:13.322Z,18.18
2017-05-06T10:14:14.753Z,17.87
2017-05-06T10:15:16.181Z,18.03
2017-05-06T10:16:17.613Z,18.07
2017-05-06T10:17:19.049Z,18.00
2017-05-06T10:18:20.481Z,17.94
2017-05-06T10:19:21.918Z,17.97
2017-05-06T10:20:23.349Z,17.95
2017-05-06T10:21:24.781Z,17.87
2017-05-06T10:22:26.214Z,17.76
2017-05-06T10:23:27.648Z,17.67
2017-05-06T10:24:29.085Z,17.43
2017-05-06T10:25:30.522Z,17.55
2017-05-06T10:26:31.959Z,17.74
2017-05-06T10:27:33.390Z,17.73
2017-05-06T10:28:34.822Z,17.57
2017-05-06T10:29:36.255Z,17.87
2017-05-06T10:30:37.698Z,18.06
2017-05-06T10:31:39.136Z,17.71
2017-05-06T10:32:40.567Z,17.71
2017-05-06T10:33:41.998Z,17.87
2017-05-06T10:34:43.444Z,17.94
2017-05-06T10:35:44.860Z,17.87
2017-05-06T10:36:46.297Z,17.99
2017-05-06T10:37:47.733Z,18.17
2017-05-06T10:38:49.173Z,18.02
2017-05-06T10:39:50.607Z,18.36
2017-05-06T10:40:52.047Z,18.13
2017-05-06T10:41:53.473Z,18.31
2017-05-06T10:42:54.922Z,18.24
2017-05-06T10:43:56.366Z,18.09
2017-05-06T10:44:57.796Z,18.24
2017-05-06T10:45:59.224Z,18.21
2017-05-06T10:47:00.701Z,18.25
2017-05-06T10:48:02.095Z,18.46
2017-05-06T10:49:03.534Z,18.76
2017-05-06T10:50:04.971Z,18.83
2017-05-06T10:51:06.395Z,18.42
2017-05-06T10:52:07.827Z,18.65
2017-05-06T10:53:09.260Z,18.58
2017-05-06T10:54:10.690Z,18.50
2017-05-06T10:55:12.129Z,18.76
2017-05-06T10:56:13.554Z,18.90
2017-05-06T10:57:14.998Z,18.86
2017-05-06T10:58:16.441Z,18.80
2017-05-06T10:59:17.867Z,18.95
2017-05-06T11:00:19.300Z,18.65
2017-05-06T11:01:20.746Z,18.64
2017-05-06T11:02:22.180Z,18.58
2017-05-06T11:03:23.614Z,18.65
2017-05-06T11:04:25.059Z,18.64
2017-05-06T11:05:26.494Z,18.34
2017-05-06T11:06:27.942Z,18.36
2017-05-06T11:07:30.369Z,18.25
2017-05-06T11:08:31.804Z,18.19
2017-05-06T11:09:33.233Z,18.42
2017-05-06T11:10:34.667Z,18.62
2017-05-06T11:11:36.100Z,18.52
2017-05-06T11:12:37.539Z,18.21
2017-05-06T11:13:38.973Z,18.40
2017-05-06T11:14:40.406Z,18.34
2017-05-06T11:15:41.880Z,18.22
2017-05-06T11:16:43.297Z,18.12
2017-05-06T11:17:44.729Z,18.24
2017-05-06T11:18:46.165Z,18.15
2017-05-06T11:19:47.598Z,18.07
2017-05-06T11:20:49.039Z,18.22
2017-05-06T11:21:50.471Z,18.40
2017-05-06T11:22:51.910Z,18.64
2017-05-06T11:23:53.346Z,18.90
2017-05-06T11:24:54.785Z,19.08
2017-05-06T11:25:56.224Z,19.33
2017-05-06T11:26:57.657Z,19.48
2017-05-06T11:27:59.088Z,19.60
2017-05-06T11:29:00.517Z,19.97
2017-05-06T11:30:01.959Z,19.98
2017-05-06T11:31:03.391Z,19.91
2017-05-06T11:32:04.823Z,19.69
2017-05-06T11:33:06.254Z,19.35
2017-05-06T11:34:07.696Z,18.94
2017-05-06T11:35:09.126Z,18.91
2017-05-06T11:36:10.563Z,18.76
2017-05-06T11:37:11.997Z,18.84
2017-05-06T11:38:13.424Z,19.21
2017-05-06T11:39:14.875Z,19.13
2017-05-06T11:40:16.323Z,19.20
2017-05-06T11:41:17.755Z,19.01
2017-05-06T11:42:19.182Z,19.06
2017-05-06T11:43:20.618Z,19.43
2017-05-06T11:44:22.058Z,19.28
2017-05-06T11:45:23.495Z,19.08
2017-05-06T11:46:24.935Z,19.43
2017-05-06T11:47:26.384Z,19.79
2017-05-06T11:48:27.808Z,19.88
2017-05-06T11:49:29.250Z,19.70
2017-05-06T11:50:30.681Z,19.42
2017-05-06T11:51:32.115Z,19.50
2017-05-06T11:52:33.542Z,19.48
2017-05-06T11:53:34.986Z,20.06
2017-05-06T11:54:36.421Z,20.12
2017-05-06T11:55:37.863Z,20.18
2017-05-06T11:56:39.301Z,20.00
2017-05-06T11:57:40.733Z,19.91
2017-05-06T11:58:42.177Z,19.91
2017-05-06T11:59:43.611Z,19.97
2017-05-06T12:00:45.047Z,20.09
2017-05-06T12:01:46.478Z,19.78
2017-05-06T12:02:47.907Z,19.54
2017-05-06T12:03:49.352Z,19.43
2017-05-06T12:04:50.799Z,19.94
2017-05-06T12:05:52.238Z,20.30
2017-05-06T12:06:53.678Z,20.05
2017-05-06T12:07:55.108Z,19.65
2017-05-06T12:08:56.550Z,19.42
2017-05-06T12:09:58.054Z,19.87
2017-05-06T12:10:59.488Z,20.00
2017-05-06T12:12:00.931Z,20.35
2017-05-06T12:13:02.361Z,20.49
2017-05-06T12:14:03.802Z,20.03
2017-05-06T12:15:05.248Z,20.13
2017-05-06T12:16:07.606Z,19.90
2017-05-06T12:17:09.041Z,19.83
2017-05-06T12:18:10.474Z,19.68
2017-05-06T12:19:12.017Z,19.84
2017-05-06T12:20:13.450Z,19.86
2017-05-06T12:21:14.885Z,20.06
2017-05-06T12:22:16.318Z,20.34
2017-05-06T12:23:17.757Z,20.61
2017-05-06T12:24:19.196Z,20.72
2017-05-06T12:25:20.633Z,20.87
2017-05-06T12:26:22.133Z,20.66
2017-05-06T12:27:23.572Z,20.77
2017-05-06T12:28:25.016Z,20.80
2017-05-06T12:29:26.454Z,21.16
2017-05-06T12:30:27.935Z,21.05
2017-05-06T12:31:29.375Z,20.95
2017-05-06T12:32:30.809Z,20.66
2017-05-06T12:33:32.249Z,20.72
2017-05-06T12:34:33.708Z,20.64
2017-05-06T12:35:35.156Z,20.54
2017-05-06T12:36:36.595Z,20.66
2017-05-06T12:37:38.037Z,20.46
2017-05-06T12:38:39.466Z,20.02
2017-05-06T12:39:40.909Z,20.41
2017-05-06T12:40:42.361Z,20.51
2017-05-06T12:41:43.799Z,20.54
2017-05-06T12:42:45.250Z,20.74
2017-05-06T12:43:46.686Z,20.77
2017-05-06T12:44:48.125Z,20.99
2017-05-06T12:45:49.560Z,21.04
2017-05-06T12:46:51.007Z,21.16
2017-05-06T12:47:52.453Z,20.96
2017-05-06T12:48:53.902Z,20.89
2017-05-06T12:49:55.333Z,20.90
2017-05-06T12:50:56.777Z,21.26
2017-05-06T12:51:58.214Z,20.96
2017-05-06T12:52:59.676Z,20.83
2017-05-06T12:54:01.114Z,20.79
2017-05-06T12:55:02.551Z,21.08
2017-05-06T12:56:03.985Z,20.96
2017-05-06T12:57:05.427Z,20.64
2017-05-06T12:58:06.878Z,20.71
2017-05-06T12:59:08.302Z,20.81
2017-05-06T13:00:09.741Z,20.83
2017-05-06T13:01:11.187Z,21.01
2017-05-06T13:02:12.614Z,20.77
2017-05-06T13:03:14.080Z,20.62
2017-05-06T13:04:15.523Z,20.47
2017-05-06T13:05:16.964Z,20.33
2017-05-06T13:06:18.403Z,20.65
2017-05-06T13:07:19.841Z,20.93
2017-05-06T13:08:21.288Z,20.83
2017-05-06T13:09:22.718Z,20.50
2017-05-06T13:10:24.169Z,20.51
2017-05-06T13:11:25.615Z,20.47
2017-05-06T13:12:27.053Z,20.08
2017-05-06T13:13:28.488Z,20.27
2017-05-06T13:14:29.927Z,20.34
2017-05-06T13:15:31.363Z,20.58
2017-05-06T13:16:32.800Z,20.50
2017-05-06T13:17:34.250Z,20.76
2017-05-06T13:18:35.692Z,20.56
2017-05-06T13:19:37.130Z,21.05
2017-05-06T13:20:38.566Z,21.27
2017-05-06T13:21:40.008Z,21.26
2017-05-06T13:22:41.451Z,21.30
2017-05-06T13:23:42.898Z,21.45